Time;durP1;ratioP1;P1;durP2;ratioP2;P2;SDS_P1;SDS_P2;PMS_P1;PMS_P2;Temp;Humidity;BMP_temperature;BMP_pressure;BME280_temperature;BME280_humidity;BME280_pressure;Samples;Min_cycle;Max_cycle;Signal;HPM_P1;HPM_P2
2021/12/12 00:01:00;;;;;;;;;;;;;;;1.98;76.29;98688.84;1778855;79;20224;-86
2021/12/12 00:03:46;;;;;;;;;;;;;;;1.98;76.26;98697.87;1770116;80;25873;-86
2021/12/12 00:06:09;;;;;;;;;;;;;;;1.88;76.23;98686.16;1770672;80;22018;-86
2021/12/12 00:08:36;;;;;;;;;;;;;;;1.90;76.21;98688.26;1778026;80;26120;-85
2021/12/12 00:11:04;;;;;;;;;;;;;;;1.95;76.21;98688.11;1777831;78;24548;-85
2021/12/12 00:13:35;;;;;;;;;;;;;;;1.97;76.21;98691.47;1779215;80;20325;-85
2021/12/12 00:16:02;;;;;;;;;;;;;;;1.99;76.23;98694.41;1777124;80;25710;-85
2021/12/12 00:18:29;;;;;;;;;;;;;;;1.84;76.20;98695.34;1778978;80;22074;-85
2021/12/12 00:20:55;;;;;;;;;;;;;;;1.69;76.17;98697.95;1781649;80;26248;-85
2021/12/12 00:23:22;;;;;;;;;;;;;;;1.74;76.18;98694.78;1777662;80;24542;-85
2021/12/12 00:25:49;;;;;;;;;;;;;;;1.80;76.20;98700.20;1776775;80;20200;-85
2021/12/12 00:28:19;;;;;;;;;;;;;;;1.77;76.20;98695.96;1775554;80;25081;-84
2021/12/12 00:30:44;;;;;;;;;;;;;;;1.81;76.25;98694.12;1780679;80;22126;-85
2021/12/12 00:33:10;;;;;;;;;;;;;;;1.73;76.25;98703.41;1781306;79;25979;-85
2021/12/12 00:35:37;;;;;;;;;;;;;;;1.72;76.25;98706.87;1778077;80;25213;-85
2021/12/12 00:38:04;;;;;;;;;;;;;;;1.87;76.32;98715.88;1782009;80;20209;-85
2021/12/12 00:40:35;;;;;;;;;;;;;;;1.89;76.35;98716.23;1780304;80;25008;-85
2021/12/12 00:43:04;;;;;;;;;;;;;;;1.95;76.38;98711.34;1771366;78;22119;-84
2021/12/12 00:45:30;;;;;;;;;;;;;;;1.96;76.44;98716.45;1781882;78;26770;-84
2021/12/12 00:47:56;;;;;;;;;;;;;;;1.82;76.40;98719.04;1773982;80;24572;-85
2021/12/12 00:50:27;;;;;;;;;;;;;;;1.73;76.39;98715.02;1774774;80;20317;-84
2021/12/12 00:52:57;;;;;;;;;;;;;;;1.80;76.42;98722.13;1780648;80;25092;-84
2021/12/12 00:55:23;;;;;;;;;;;;;;;1.95;76.46;98726.82;1779033;80;22066;-84
2021/12/12 00:57:53;;;;;;;;;;;;;;;2.02;76.49;98733.02;1784697;79;25998;-84
2021/12/12 01:00:19;;;;;;;;;;;;;;;1.86;76.48;98727.92;1782580;80;24550;-85
2021/12/12 01:02:48;;;;;;;;;;;;;;;1.65;76.44;98724.70;1785600;79;20216;-85
2021/12/12 01:05:17;;;;;;;;;;;;;;;1.52;76.39;98722.94;1784398;80;25621;-85
2021/12/12 01:07:47;;;;;;;;;;;;;;;1.45;76.38;98728.31;1754705;80;22211;-85
2021/12/12 01:10:19;;;;;;;;;;;;;;;1.47;76.38;98734.28;1756818;80;26039;-85
2021/12/12 01:12:48;;;;;;;;;;;;;;;1.48;76.40;98733.36;1766649;80;24573;-85
2021/12/12 01:15:16;;;;;;;;;;;;;;;1.52;76.44;98734.55;1771896;80;20193;-85
2021/12/12 01:17:43;;;;;;;;;;;;;;;1.54;76.48;98735.33;1771235;80;25044;-85
2021/12/12 01:20:24;;;;;;;;;;;;;;;1.50;76.53;98737.61;1777441;79;21965;-85
2021/12/12 01:22:57;;;;;;;;;;;;;;;1.46;76.54;98736.01;1777187;79;27759;-85
2021/12/12 01:25:26;;;;;;;;;;;;;;;1.39;76.52;98735.77;1773836;80;25370;-85
2021/12/12 01:27:55;;;;;;;;;;;;;;;1.37;76.54;98737.98;1774724;80;21568;-85
2021/12/12 01:30:22;;;;;;;;;;;;;;;1.26;76.52;98735.27;1780143;80;26340;-85
2021/12/12 01:32:48;;;;;;;;;;;;;;;1.19;76.51;98729.89;1781680;80;22419;-85
2021/12/12 01:35:17;;;;;;;;;;;;;;;1.12;76.47;98732.23;1778725;79;26036;-85
2021/12/12 01:38:51;;;;;;;;;;;;;;;1.12;76.47;98737.83;1786777;78;24430;-85
2021/12/12 01:40:22;;;;;;;;;;;;;;;1.22;76.50;98743.98;1778921;80;20496;-86
2021/12/12 01:42:59;;;;;;;;;;;;;;;1.40;76.59;98743.91;1781537;80;25011;-85
2021/12/12 01:45:27;;;;;;;;;;;;;;;1.44;76.68;98745.52;1777544;80;21995;-85
2021/12/12 01:48:01;;;;;;;;;;;;;;;1.59;76.80;98751.95;1785517;80;26088;-86
2021/12/12 01:50:28;;;;;;;;;;;;;;;1.68;76.90;98753.84;1776708;80;24544;-86
2021/12/12 01:52:57;;;;;;;;;;;;;;;1.80;77.02;98752.61;1758750;79;20232;-86
2021/12/12 01:55:25;;;;;;;;;;;;;;;1.69;77.04;98743.09;1768862;79;25704;-86
2021/12/12 01:57:55;;;;;;;;;;;;;;;1.59;77.07;98753.24;1752866;80;22163;-85
2021/12/12 02:00:23;;;;;;;;;;;;;;;1.54;77.08;98755.96;1752561;80;26252;-85
2021/12/12 02:02:53;;;;;;;;;;;;;;;1.45;77.08;98757.97;1752342;81;25096;-85
2021/12/12 02:05:19;;;;;;;;;;;;;;;1.43;77.08;98755.42;1757550;80;20483;-85
2021/12/12 02:07:47;;;;;;;;;;;;;;;1.53;77.14;98758.13;1751838;80;25766;-86
2021/12/12 02:10:19;;;;;;;;;;;;;;;1.59;77.23;98760.98;1754157;81;22063;-85
2021/12/12 02:12:45;;;;;;;;;;;;;;;1.68;77.32;98767.19;1756439;80;26648;-85
2021/12/12 02:15:12;;;;;;;;;;;;;;;1.80;77.39;98770.67;1740412;80;24440;-85
2021/12/12 02:17:43;;;;;;;;;;;;;;;1.87;77.45;98766.19;1769287;80;20225;-86
2021/12/12 02:20:20;;;;;;;;;;;;;;;1.88;77.46;98771.31;1761273;80;25030;-86
2021/12/12 02:23:05;;;;;;;;;;;;;;;1.76;77.47;98771.66;1757102;81;22655;-86
2021/12/12 02:36:35;;;;;;;;;;;;;;;1.17;77.35;98778.49;1757038;80;22057;-86
2021/12/12 02:39:03;;;;;;;;;;;;;;;1.15;77.35;98773.81;1768888;80;25940;-86
2021/12/12 02:41:29;;;;;;;;;;;;;;;1.25;77.39;98766.27;1760815;80;24671;-85
2021/12/12 02:43:57;;;;;;;;;;;;;;;1.41;77.51;98766.68;1762147;80;20204;-86
2021/12/12 02:46:28;;;;;;;;;;;;;;;1.59;77.59;98770.86;1763436;80;25753;-86
2021/12/12 02:49:04;;;;;;;;;;;;;;;1.72;77.72;98768.78;1763611;81;22101;-86
2021/12/12 02:51:24;;;;;;;;;;;;;;;1.76;77.81;98767.80;1759769;80;26107;-86
2021/12/12 02:53:56;;;;;;;;;;;;;;;1.80;77.87;98767.28;1763910;81;20559;-86
2021/12/12 02:56:24;;;;;;;;;;;;;;;1.84;77.91;98773.59;1752440;80;20178;-86
2021/12/12 02:58:51;;;;;;;;;;;;;;;1.85;77.94;98776.58;1760720;81;24987;-86
2021/12/12 03:01:19;;;;;;;;;;;;;;;1.87;77.96;98770.91;1760604;80;22132;-85
2021/12/12 03:03:46;;;;;;;;;;;;;;;1.88;77.96;98764.86;1759274;80;26005;-85
2021/12/12 03:06:14;;;;;;;;;;;;;;;1.95;78.01;98775.41;1764064;80;24518;-86
2021/12/12 03:08:41;;;;;;;;;;;;;;;2.00;78.01;98773.98;1757236;80;20226;-85
2021/12/12 03:11:08;;;;;;;;;;;;;;;2.00;78.00;98776.11;1766676;80;24904;-85
2021/12/12 03:13:34;;;;;;;;;;;;;;;1.93;78.02;98778.47;1768616;80;21984;-85
2021/12/12 03:16:01;;;;;;;;;;;;;;;1.85;78.00;98779.16;1735037;81;26893;-85
2021/12/12 03:18:29;;;;;;;;;;;;;;;1.71;77.96;98786.44;1757337;80;24455;-85
2021/12/12 03:20:57;;;;;;;;;;;;;;;1.55;77.89;98789.05;1761087;80;20452;-85
2021/12/12 03:23:25;;;;;;;;;;;;;;;1.44;77.82;98792.37;1760824;81;25077;-84
2021/12/12 03:25:53;;;;;;;;;;;;;;;1.44;77.80;98805.26;1759586;80;22187;-85
2021/12/12 03:28:20;;;;;;;;;;;;;;;1.41;77.80;98799.77;1758665;80;25970;-85
2021/12/12 03:30:47;;;;;;;;;;;;;;;1.40;77.79;98801.08;1760945;80;24659;-85
2021/12/12 03:33:13;;;;;;;;;;;;;;;1.43;77.81;98800.55;1765490;80;20248;-84
2021/12/12 03:35:39;;;;;;;;;;;;;;;1.40;77.79;98792.06;1760226;80;25058;-85
2021/12/12 03:38:06;;;;;;;;;;;;;;;1.40;77.83;98794.64;1763770;81;22065;-85
2021/12/12 03:40:39;;;;;;;;;;;;;;;1.44;77.90;98791.08;1761888;81;26037;-85
2021/12/12 03:43:07;;;;;;;;;;;;;;;1.51;77.97;98792.61;1754571;80;24566;-86
2021/12/12 03:45:34;;;;;;;;;;;;;;;1.55;78.04;98795.05;1760108;80;20217;-86
2021/12/12 03:48:02;;;;;;;;;;;;;;;1.45;78.07;98796.20;1764517;81;24970;-85
2021/12/12 03:50:31;;;;;;;;;;;;;;;1.37;78.08;98791.69;1760073;80;21947;-85
2021/12/12 03:52:59;;;;;;;;;;;;;;;1.38;78.13;98788.66;1762999;81;26237;-85
2021/12/12 03:55:26;;;;;;;;;;;;;;;1.53;78.20;98796.81;1763634;80;24501;-85
2021/12/12 03:57:53;;;;;;;;;;;;;;;1.65;78.28;98779.72;1766054;81;20272;-85
2021/12/12 04:00:21;;;;;;;;;;;;;;;1.74;78.32;98790.23;1763720;80;24951;-85
2021/12/12 04:02:47;;;;;;;;;;;;;;;1.79;78.36;98792.23;1765596;81;21943;-86
2021/12/12 04:05:13;;;;;;;;;;;;;;;1.82;78.41;98803.74;1759197;80;26053;-85
2021/12/12 04:07:39;;;;;;;;;;;;;;;1.89;78.45;98807.00;1763871;81;20212;-86
2021/12/12 04:10:06;;;;;;;;;;;;;;;1.98;78.46;98806.27;1756829;79;20593;-86
2021/12/12 04:12:32;;;;;;;;;;;;;;;2.02;78.47;98802.70;1758531;80;25191;-86
2021/12/12 04:14:59;;;;;;;;;;;;;;;1.98;78.46;98802.84;1765508;81;21653;-86
2021/12/12 04:17:27;;;;;;;;;;;;;;;1.82;78.46;98798.58;1758383;80;26100;-86
2021/12/12 04:19:55;;;;;;;;;;;;;;;1.65;78.43;98807.24;1756348;80;24058;-85
2021/12/12 04:22:21;;;;;;;;;;;;;;;1.57;78.44;98808.77;1764004;79;20263;-85
2021/12/12 04:24:52;;;;;;;;;;;;;;;1.50;78.39;98803.36;1755921;80;25022;-85
2021/12/12 04:27:20;;;;;;;;;;;;;;;1.61;78.45;98807.78;1768037;81;21644;-87
2021/12/12 04:29:47;;;;;;;;;;;;;;;1.61;78.46;98812.09;1764759;81;26035;-87
2021/12/12 04:32:15;;;;;;;;;;;;;;;1.59;78.48;98813.86;1761781;81;25509;-86
2021/12/12 04:34:43;;;;;;;;;;;;;;;1.71;78.54;98819.13;1765892;81;20242;-86
2021/12/12 04:37:09;;;;;;;;;;;;;;;1.69;78.60;98817.90;1756000;80;24976;-86
2021/12/12 04:39:37;;;;;;;;;;;;;;;1.76;78.67;98829.72;1762470;80;22057;-86
2021/12/12 04:42:18;;;;;;;;;;;;;;;1.68;78.72;98827.37;1758645;80;26590;-87
2021/12/12 04:44:46;;;;;;;;;;;;;;;1.62;78.73;98831.41;1759283;79;25359;-86
2021/12/12 04:50:15;;;;;;;;;;;;;;;1.62;78.76;98837.00;1759577;80;25840;-86
2021/12/12 04:52:56;;;;;;;;;;;;;;;1.69;78.81;98838.06;1761325;80;22002;-86
2021/12/12 04:55:25;;;;;;;;;;;;;;;1.67;78.83;98844.17;1765532;80;25950;-85
2021/12/12 04:57:53;;;;;;;;;;;;;;;1.64;78.84;98845.53;1754852;81;24077;-85
2021/12/12 05:00:20;;;;;;;;;;;;;;;1.63;78.89;98855.03;1758293;80;20162;-85
2021/12/12 05:02:51;;;;;;;;;;;;;;;1.71;78.92;98860.40;1763922;80;24796;-85
2021/12/12 05:05:21;;;;;;;;;;;;;;;1.66;78.95;98861.81;1761931;81;22683;-85
2021/12/12 05:07:55;;;;;;;;;;;;;;;1.65;78.94;98871.29;1755416;80;26068;-86
2021/12/12 05:10:25;;;;;;;;;;;;;;;1.62;78.95;98875.25;1759906;80;25158;-86
2021/12/12 05:12:53;;;;;;;;;;;;;;;1.68;78.97;98878.11;1776804;80;20444;-85
2021/12/12 05:15:21;;;;;;;;;;;;;;;1.78;79.03;98888.58;1764290;79;24766;-85
2021/12/12 05:18:08;;;;;;;;;;;;;;;1.86;79.07;98892.22;1731767;81;21766;-85
2021/12/12 05:20:42;;;;;;;;;;;;;;;1.97;79.12;98896.64;1761549;79;26014;-85
2021/12/12 05:23:10;;;;;;;;;;;;;;;2.07;79.17;98895.52;1759439;80;25305;-85
2021/12/12 05:25:38;;;;;;;;;;;;;;;2.10;79.17;98904.45;1765734;80;20213;-85
2021/12/12 05:28:06;;;;;;;;;;;;;;;2.04;79.17;98900.31;1748877;80;25018;-85
2021/12/12 05:30:39;;;;;;;;;;;;;;;1.99;79.16;98900.04;1759157;79;22036;-85
2021/12/12 05:33:05;;;;;;;;;;;;;;;1.95;79.10;98898.00;1761926;81;26783;-86
2021/12/12 05:35:33;;;;;;;;;;;;;;;1.86;79.07;98900.81;1753748;81;24501;-86
2021/12/12 05:37:59;;;;;;;;;;;;;;;1.86;79.06;98902.10;1766621;80;20222;-85
2021/12/12 05:40:27;;;;;;;;;;;;;;;1.81;79.03;98896.66;1758381;80;24996;-86
2021/12/12 05:42:55;;;;;;;;;;;;;;;1.83;79.04;98902.20;1763903;80;22069;-86
2021/12/12 05:45:21;;;;;;;;;;;;;;;1.85;79.03;98897.86;1759083;81;26838;-86
2021/12/12 05:47:48;;;;;;;;;;;;;;;1.85;79.05;98897.00;1762755;80;25158;-85
2021/12/12 05:50:20;;;;;;;;;;;;;;;1.77;79.01;98899.78;1763542;80;20337;-86
2021/12/12 05:52:45;;;;;;;;;;;;;;;1.70;78.99;98896.95;1769763;79;25069;-86
2021/12/12 05:55:14;;;;;;;;;;;;;;;1.72;79.01;98899.06;1757343;80;21489;-86
2021/12/12 05:57:43;;;;;;;;;;;;;;;1.76;79.04;98894.66;1762754;81;25988;-86
2021/12/12 06:00:11;;;;;;;;;;;;;;;1.67;79.02;98903.50;1751619;80;25363;-85
2021/12/12 06:02:37;;;;;;;;;;;;;;;1.63;79.01;98899.32;1760908;81;20489;-86
2021/12/12 06:05:05;;;;;;;;;;;;;;;1.58;79.00;98907.62;1761858;80;24960;-86
2021/12/12 06:07:33;;;;;;;;;;;;;;;1.52;79.01;98909.07;1768804;80;21945;-86
2021/12/12 06:10:00;;;;;;;;;;;;;;;1.55;79.04;98911.12;1753500;80;26169;-86
2021/12/12 06:12:32;;;;;;;;;;;;;;;1.70;79.12;98900.83;1765504;81;24482;-86
2021/12/12 06:14:59;;;;;;;;;;;;;;;1.83;79.21;98900.06;1758392;80;20207;-86
2021/12/12 06:17:26;;;;;;;;;;;;;;;1.83;79.24;98899.62;1756130;80;25035;-86
2021/12/12 06:19:53;;;;;;;;;;;;;;;1.80;79.28;98903.55;1764557;79;22053;-86
2021/12/12 06:22:20;;;;;;;;;;;;;;;1.76;79.30;98907.11;1754239;80;25946;-85
2021/12/12 06:24:48;;;;;;;;;;;;;;;1.68;79.30;98909.92;1756108;79;24481;-85
2021/12/12 06:27:16;;;;;;;;;;;;;;;1.69;79.30;98905.61;1764411;81;20207;-86
2021/12/12 06:29:42;;;;;;;;;;;;;;;1.86;79.33;98899.52;1759644;80;24984;-85
2021/12/12 06:32:09;;;;;;;;;;;;;;;2.00;79.37;98904.31;1759170;80;22004;-85
2021/12/12 06:34:35;;;;;;;;;;;;;;;1.94;79.35;98900.17;1761059;80;26742;-85
2021/12/12 06:37:05;;;;;;;;;;;;;;;1.87;79.32;98904.24;1765832;79;24431;-85
2021/12/12 06:39:36;;;;;;;;;;;;;;;1.77;79.32;98901.52;1757114;79;20177;-86
2021/12/12 06:42:03;;;;;;;;;;;;;;;1.57;79.24;98905.92;1761824;80;25145;-86
2021/12/12 06:44:34;;;;;;;;;;;;;;;1.44;79.17;98905.83;1760787;79;22074;-86
2021/12/12 06:47:00;;;;;;;;;;;;;;;1.33;79.09;98907.39;1732280;81;21260;-86
2021/12/12 06:49:26;;;;;;;;;;;;;;;1.35;79.04;98908.65;1767996;80;24388;-86
2021/12/12 06:51:54;;;;;;;;;;;;;;;1.46;79.07;98902.78;1751204;80;20452;-86
2021/12/12 06:54:24;;;;;;;;;;;;;;;1.55;79.11;98905.95;1742229;80;25532;-86
2021/12/12 06:56:56;;;;;;;;;;;;;;;1.50;79.12;98904.38;1760567;80;22007;-85
2021/12/12 06:59:23;;;;;;;;;;;;;;;1.49;79.12;98903.97;1761877;81;21841;-86
2021/12/12 07:01:54;;;;;;;;;;;;;;;1.34;79.09;98908.24;1759716;80;20158;-86
2021/12/12 07:04:21;;;;;;;;;;;;;;;1.21;79.02;98910.27;1744131;81;20428;-86
2021/12/12 07:06:48;;;;;;;;;;;;;;;1.11;78.92;98922.55;1761796;81;24983;-85
2021/12/12 07:09:18;;;;;;;;;;;;;;;1.08;78.87;98928.22;1710621;81;22113;-86
2021/12/12 07:11:45;;;;;;;;;;;;;;;1.11;78.88;98925.12;1763651;80;26057;-86
2021/12/12 07:14:12;;;;;;;;;;;;;;;1.05;78.87;98920.11;1762544;80;25138;-86
2021/12/12 07:16:44;;;;;;;;;;;;;;;0.87;78.82;98903.81;1757475;80;20172;-86
2021/12/12 07:19:08;;;;;;;;;;;;;;;0.87;78.79;98923.58;1734230;81;24998;-85
2021/12/12 07:21:40;;;;;;;;;;;;;;;0.77;78.76;98931.93;1724487;81;22850;-85
2021/12/12 07:24:11;;;;;;;;;;;;;;;0.76;78.71;98939.28;1719343;81;26122;-85
2021/12/12 07:26:35;;;;;;;;;;;;;;;0.72;78.72;98937.63;1736596;81;24571;-84
2021/12/12 07:29:02;;;;;;;;;;;;;;;0.75;78.75;98942.30;1706269;83;20210;-85
2021/12/12 07:31:30;;;;;;;;;;;;;;;0.82;78.78;98942.54;1738361;82;25305;-86
2021/12/12 07:33:58;;;;;;;;;;;;;;;0.86;78.85;98945.91;1699763;83;21964;-86
2021/12/12 07:36:25;;;;;;;;;;;;;;;0.90;78.92;98947.97;1713061;82;25987;-86
2021/12/12 07:38:52;;;;;;;;;;;;;;;0.91;78.98;98947.94;1733144;82;24543;-86
2021/12/12 07:41:20;;;;;;;;;;;;;;;0.94;79.04;98947.86;1755491;81;20245;-85
2021/12/12 07:43:46;;;;;;;;;;;;;;;0.89;79.07;98946.27;1755661;80;25180;-85
2021/12/12 07:46:12;;;;;;;;;;;;;;;0.86;79.09;98948.48;1740037;81;21980;-85
2021/12/12 07:48:42;;;;;;;;;;;;;;;0.86;79.14;98948.93;1758082;80;26140;-85
2021/12/12 07:51:07;;;;;;;;;;;;;;;0.81;79.14;98947.75;1758335;80;25248;-85
2021/12/12 07:53:39;;;;;;;;;;;;;;;0.78;79.14;98954.23;1765090;80;20530;-85
2021/12/12 07:56:09;;;;;;;;;;;;;;;0.72;79.14;98952.64;1752626;81;25634;-85
2021/12/12 07:58:36;;;;;;;;;;;;;;;0.65;79.14;98955.41;1739578;81;22660;-85
2021/12/12 08:01:03;;;;;;;;;;;;;;;0.60;79.13;98953.38;1751888;80;25488;-85
2021/12/12 08:03:31;;;;;;;;;;;;;;;0.56;79.11;98958.16;1761478;80;24649;-87
2021/12/12 08:06:00;;;;;;;;;;;;;;;0.58;79.13;98957.70;1759406;80;20346;-85
2021/12/12 08:08:27;;;;;;;;;;;;;;;0.57;79.16;98967.59;1762612;80;25203;-86
2021/12/12 08:10:53;;;;;;;;;;;;;;;0.60;79.20;98966.25;1757138;79;21946;-86
2021/12/12 08:13:23;;;;;;;;;;;;;;;0.64;79.25;98966.15;1755431;80;26669;-86
2021/12/12 08:15:49;;;;;;;;;;;;;;;0.63;79.29;98968.31;1764383;79;24441;-85
2021/12/12 08:18:18;;;;;;;;;;;;;;;0.61;79.33;98962.33;1765502;80;20483;-86
2021/12/12 08:20:51;;;;;;;;;;;;;;;0.60;79.38;98955.48;1768271;80;25608;-86
2021/12/12 08:23:18;;;;;;;;;;;;;;;0.62;79.41;98965.77;1760403;80;22056;-85
2021/12/12 08:25:47;;;;;;;;;;;;;;;0.73;79.48;98962.52;1760582;80;26097;-85
2021/12/12 08:28:15;;;;;;;;;;;;;;;0.90;79.59;98967.30;1778320;79;24473;-86
2021/12/12 08:30:42;;;;;;;;;;;;;;;0.99;79.70;98964.05;1760208;80;20203;-86
2021/12/12 08:33:09;;;;;;;;;;;;;;;1.05;79.79;98970.80;1758496;80;25029;-86
2021/12/12 08:35:36;;;;;;;;;;;;;;;1.17;79.92;98972.66;1759037;81;22654;-86
2021/12/12 08:38:04;;;;;;;;;;;;;;;1.42;80.05;98967.74;1751948;80;26891;-85
2021/12/12 08:40:33;;;;;;;;;;;;;;;1.64;80.18;98961.16;1757324;80;24769;-86
2021/12/12 08:43:00;;;;;;;;;;;;;;;1.66;80.28;98966.30;1766281;81;20138;-85
2021/12/12 08:45:27;;;;;;;;;;;;;;;1.63;80.32;98959.50;1763424;79;25579;-86
2021/12/12 08:47:54;;;;;;;;;;;;;;;1.63;80.33;98967.67;1761944;81;22301;-86
2021/12/12 08:50:29;;;;;;;;;;;;;;;1.52;80.31;98956.78;1764529;80;25952;-85
2021/12/12 08:52:53;;;;;;;;;;;;;;;1.50;80.26;98966.28;1754062;80;24479;-86
2021/12/12 08:55:21;;;;;;;;;;;;;;;1.50;80.22;98967.13;1762275;80;20136;-86
2021/12/12 08:58:02;;;;;;;;;;;;;;;1.61;80.24;98962.55;1762509;81;24999;-86
2021/12/12 09:00:27;;;;;;;;;;;;;;;1.69;80.28;98961.89;1762838;79;22790;-86
2021/12/12 09:02:54;;;;;;;;;;;;;;;1.68;80.28;98960.23;1759492;79;26600;-85
2021/12/12 09:05:22;;;;;;;;;;;;;;;1.79;80.30;98959.94;1765264;80;24609;-86
2021/12/12 09:07:50;;;;;;;;;;;;;;;1.91;80.35;98964.76;1763477;81;20222;-86
2021/12/12 09:10:21;;;;;;;;;;;;;;;2.04;80.40;98966.58;1762012;81;25830;-86
2021/12/12 09:12:49;;;;;;;;;;;;;;;2.05;80.41;98966.98;1762510;79;21495;-85
2021/12/12 09:15:27;;;;;;;;;;;;;;;2.14;80.40;98963.29;1759185;81;26610;-86
2021/12/12 09:18:01;;;;;;;;;;;;;;;2.12;80.39;98964.64;1750632;80;25159;-86
2021/12/12 09:20:35;;;;;;;;;;;;;;;1.99;80.31;98970.58;1755230;80;20246;-86
2021/12/12 09:23:13;;;;;;;;;;;;;;;2.01;80.27;98965.38;1760204;81;25162;-86
2021/12/12 09:25:49;;;;;;;;;;;;;;;2.02;80.25;98965.76;1752182;81;21977;-85
2021/12/12 09:28:27;;;;;;;;;;;;;;;2.00;80.17;98961.10;1758120;80;26107;-86
2021/12/12 09:30:55;;;;;;;;;;;;;;;1.97;80.11;98965.03;1761712;80;24501;-86
2021/12/12 09:33:22;;;;;;;;;;;;;;;2.00;80.10;98966.27;1766376;80;20181;-86
2021/12/12 09:35:50;;;;;;;;;;;;;;;1.74;79.98;98937.29;1751815;80;25862;-86
2021/12/12 09:38:18;;;;;;;;;;;;;;;1.76;79.89;98959.16;1737630;81;21942;-85
2021/12/12 09:40:50;;;;;;;;;;;;;;;1.74;79.80;98961.80;1699608;83;26001;-86
2021/12/12 09:43:36;;;;;;;;;;;;;;;1.73;79.77;98961.83;1736784;82;25251;-84
2021/12/12 09:46:04;;;;;;;;;;;;;;;1.74;79.72;98962.24;1713473;83;20459;-85
2021/12/12 09:51:43;;;;;;;;;;;;;;;1.72;79.67;98962.70;1756402;80;22127;-85
2021/12/12 09:54:15;;;;;;;;;;;;;;;1.76;79.67;98960.00;1754377;80;25934;-85
2021/12/12 09:57:00;;;;;;;;;;;;;;;1.74;79.64;98964.82;1750909;80;25151;-86
2021/12/12 09:59:41;;;;;;;;;;;;;;;1.66;79.61;98959.84;1742396;80;20217;-87
2021/12/12 10:02:18;;;;;;;;;;;;;;;1.73;79.59;98961.39;1756923;80;24961;-86
2021/12/12 10:04:53;;;;;;;;;;;;;;;1.79;79.59;98963.81;1754645;80;22094;-86
2021/12/12 10:07:30;;;;;;;;;;;;;;;1.88;79.61;98965.30;1756015;80;26714;-86
2021/12/12 10:09:59;;;;;;;;;;;;;;;1.94;79.64;98966.42;1727209;81;24547;-86
2021/12/12 10:12:27;;;;;;;;;;;;;;;1.95;79.64;98966.39;1755815;81;20581;-86
2021/12/12 10:14:57;;;;;;;;;;;;;;;2.06;79.68;98955.34;1758871;80;20150;-86
2021/12/12 10:17:28;;;;;;;;;;;;;;;2.12;79.72;98958.63;1759204;80;21830;-86
2021/12/12 10:19:56;;;;;;;;;;;;;;;2.13;79.70;98960.33;1759522;80;26741;-86
2021/12/12 10:22:40;;;;;;;;;;;;;;;2.16;79.71;98965.40;1763980;79;25164;-86
2021/12/12 10:25:11;;;;;;;;;;;;;;;2.14;79.68;98968.45;1757566;81;20694;-85
2021/12/12 10:27:56;;;;;;;;;;;;;;;2.11;79.62;98965.53;1746940;79;25742;-85
2021/12/12 10:30:23;;;;;;;;;;;;;;;2.04;79.55;98970.45;1726124;82;21983;-85
2021/12/12 10:32:51;;;;;;;;;;;;;;;2.04;79.47;98969.16;1736470;81;26095;-85
2021/12/12 10:35:19;;;;;;;;;;;;;;;2.06;79.41;98966.09;1733129;79;24451;-85
2021/12/12 10:37:47;;;;;;;;;;;;;;;2.06;79.36;98968.69;1747490;80;20317;-86
2021/12/12 10:40:15;;;;;;;;;;;;;;;2.01;79.29;98964.09;1736675;81;25154;-86
2021/12/12 10:42:46;;;;;;;;;;;;;;;2.01;79.22;98964.09;1775691;80;21993;-85
2021/12/12 10:45:14;;;;;;;;;;;;;;;1.96;79.16;98961.64;1754386;80;26039;-85
2021/12/12 10:47:57;;;;;;;;;;;;;;;1.97;79.10;98958.14;1742360;81;24595;-86
2021/12/12 10:50:31;;;;;;;;;;;;;;;1.93;79.05;98960.41;1693013;82;20332;-85
2021/12/12 10:52:58;;;;;;;;;;;;;;;1.93;78.97;98961.70;1753558;79;25908;-85
2021/12/12 10:55:26;;;;;;;;;;;;;;;1.80;78.89;98962.91;1764544;81;22021;-86
2021/12/12 10:57:54;;;;;;;;;;;;;;;1.71;78.79;98957.14;1756628;80;26033;-85
2021/12/12 11:00:22;;;;;;;;;;;;;;;1.77;78.74;98962.14;1750750;80;24513;-86
2021/12/12 11:03:02;;;;;;;;;;;;;;;1.74;78.71;98956.64;1764112;80;20553;-86
2021/12/12 11:05:33;;;;;;;;;;;;;;;1.79;78.68;98956.52;1761208;81;25075;-85
2021/12/12 11:08:04;;;;;;;;;;;;;;;1.79;78.68;98956.08;1761209;80;22582;-85
2021/12/12 11:10:31;;;;;;;;;;;;;;;1.80;78.66;98948.71;1733080;81;26011;-86
2021/12/12 11:13:01;;;;;;;;;;;;;;;1.81;78.65;98951.70;1759901;80;25402;-86
2021/12/12 11:15:35;;;;;;;;;;;;;;;1.86;78.66;98950.28;1726517;80;20245;-85
2021/12/12 11:18:07;;;;;;;;;;;;;;;1.89;78.67;98939.89;1753171;80;24961;-85
2021/12/12 11:20:38;;;;;;;;;;;;;;;1.97;78.67;98934.91;1752419;80;22916;-86
2021/12/12 11:23:06;;;;;;;;;;;;;;;2.11;78.68;98934.55;1760731;81;26878;-86
2021/12/12 11:25:40;;;;;;;;;;;;;;;2.09;78.69;98925.98;1749856;80;24520;-86
2021/12/12 11:28:08;;;;;;;;;;;;;;;2.05;78.68;98930.84;1756898;80;20301;-86
2021/12/12 11:30:36;;;;;;;;;;;;;;;2.02;78.62;98927.89;1765578;80;24833;-86
2021/12/12 11:33:09;;;;;;;;;;;;;;;1.96;78.56;98930.66;1726991;82;22231;-86
2021/12/12 11:35:37;;;;;;;;;;;;;;;1.95;78.53;98931.99;1709203;83;26239;-86
2021/12/12 11:38:04;;;;;;;;;;;;;;;1.97;78.49;98932.34;1727952;80;24605;-85
2021/12/12 11:40:41;;;;;;;;;;;;;;;1.97;78.44;98928.46;1775606;79;20298;-86
2021/12/12 11:43:14;;;;;;;;;;;;;;;2.04;78.44;98932.58;1777684;80;25285;-86
2021/12/12 11:45:41;;;;;;;;;;;;;;;2.14;78.44;98928.44;1781842;80;22021;-86
2021/12/12 11:48:26;;;;;;;;;;;;;;;2.26;78.47;98926.81;1784997;78;26189;-86
2021/12/12 11:50:59;;;;;;;;;;;;;;;2.27;78.48;98927.22;1777603;79;24462;-86
2021/12/12 11:53:36;;;;;;;;;;;;;;;2.26;78.45;98931.97;1783515;80;20342;-86
2021/12/12 11:56:19;;;;;;;;;;;;;;;2.35;78.45;98935.13;1780798;79;24964;-86
2021/12/12 11:59:05;;;;;;;;;;;;;;;2.39;78.44;98934.62;1779577;80;22039;-86
2021/12/12 12:01:36;;;;;;;;;;;;;;;2.51;78.46;98940.25;1781568;80;25958;-86
2021/12/12 12:04:15;;;;;;;;;;;;;;;2.65;78.46;98932.10;1780147;80;24500;-86
2021/12/12 12:07:00;;;;;;;;;;;;;;;2.68;78.49;98929.86;1775104;80;20215;-86
2021/12/12 12:09:34;;;;;;;;;;;;;;;2.68;78.47;98935.88;1780570;78;24944;-86
2021/12/12 12:12:05;;;;;;;;;;;;;;;2.72;78.43;98935.36;1775771;79;22163;-86
2021/12/12 12:14:49;;;;;;;;;;;;;;;2.63;78.40;98929.15;1778027;80;26303;-87
2021/12/12 12:17:14;;;;;;;;;;;;;;;2.69;78.37;98933.69;1746527;80;24625;-86
2021/12/12 12:19:59;;;;;;;;;;;;;;;2.80;78.34;98935.51;1748966;80;20185;-86
2021/12/12 12:22:30;;;;;;;;;;;;;;;2.83;78.32;98943.19;1768855;80;25007;-86
2021/12/12 12:25:02;;;;;;;;;;;;;;;2.77;78.23;98947.24;1764180;79;22674;-86
2021/12/12 12:27:27;;;;;;;;;;;;;;;2.69;78.14;98940.16;1758974;80;26161;-86
2021/12/12 12:30:12;;;;;;;;;;;;;;;2.65;78.03;98939.01;1763002;81;24557;-86
2021/12/12 12:32:59;;;;;;;;;;;;;;;2.60;77.98;98940.44;1758515;79;20499;-86
2021/12/12 12:35:43;;;;;;;;;;;;;;;2.61;77.85;98951.18;1767010;81;25751;-86
2021/12/12 12:38:28;;;;;;;;;;;;;;;2.66;77.79;98950.59;1748546;80;22038;-86
2021/12/12 12:41:13;;;;;;;;;;;;;;;2.74;77.74;98948.61;1755317;80;26036;-85
2021/12/12 12:43:44;;;;;;;;;;;;;;;2.71;77.67;98945.28;1763568;80;24474;-86
2021/12/12 12:46:19;;;;;;;;;;;;;;;2.66;77.57;98946.72;1782429;79;20256;-86
2021/12/12 12:48:47;;;;;;;;;;;;;;;2.65;77.45;98956.65;1785377;78;25090;-86
2021/12/12 12:51:21;;;;;;;;;;;;;;;2.63;77.33;98955.84;1775811;79;21944;-86
2021/12/12 12:53:58;;;;;;;;;;;;;;;2.62;77.24;98945.57;1778189;80;25626;-87
2021/12/12 12:56:26;;;;;;;;;;;;;;;2.65;77.13;98947.61;1783331;78;24568;-86
2021/12/12 13:01:50;;;;;;;;;;;;;;;2.64;77.00;98947.20;1701819;82;25105;-86
2021/12/12 13:04:27;;;;;;;;;;;;;;;2.55;76.90;98955.23;1681105;82;21965;-86
2021/12/12 13:07:13;;;;;;;;;;;;;;;2.48;76.80;98951.13;1686865;82;26154;-86
2021/12/12 13:09:42;;;;;;;;;;;;;;;2.42;76.70;98952.59;1704838;82;25194;-86
2021/12/12 13:12:20;;;;;;;;;;;;;;;2.37;76.62;98954.02;1694185;83;20355;-85
2021/12/12 13:14:57;;;;;;;;;;;;;;;2.35;76.57;98955.78;1690885;82;25621;-86
2021/12/12 13:17:43;;;;;;;;;;;;;;;2.33;76.55;98958.03;1692900;83;23075;-86
2021/12/12 13:20:16;;;;;;;;;;;;;;;2.38;76.50;98959.59;1698773;82;25965;-86
2021/12/12 13:22:44;;;;;;;;;;;;;;;2.41;76.48;98963.80;1698025;82;24485;-86
2021/12/12 13:25:18;;;;;;;;;;;;;;;2.45;76.46;98961.12;1682921;83;20324;-86
2021/12/12 13:28:08;;;;;;;;;;;;;;;2.41;76.42;98963.80;1686371;82;25084;-86
2021/12/12 13:30:47;;;;;;;;;;;;;;;2.44;76.41;98954.70;1774768;80;22071;-86
2021/12/12 13:33:18;;;;;;;;;;;;;;;2.34;76.37;98954.56;1780467;80;26009;-87